createdAt,value
2023-05-05T00:02:21.648Z,89642.25
2023-05-05T00:04:48.568Z,89637.59
2023-05-05T00:07:15.639Z,89639.06
2023-05-05T00:09:43.610Z,89636.38
2023-05-05T00:12:10.721Z,89638.31
2023-05-05T00:14:37.822Z,89633.72
2023-05-05T00:17:05.785Z,89635.13
2023-05-05T00:19:36.311Z,89628.66
2023-05-05T00:22:11.504Z,89627.19
2023-05-05T00:24:45.147Z,89619.22
2023-05-05T00:27:14.902Z,89621.69
2023-05-05T00:29:45.051Z,89611.00
2023-05-05T00:32:14.321Z,89621.47
2023-05-05T00:34:41.138Z,89620.25
2023-05-05T00:37:07.949Z,89615.63
2023-05-05T00:39:34.796Z,89612.75
2023-05-05T00:42:01.670Z,89608.84
2023-05-05T00:44:38.277Z,89608.13
2023-05-05T00:47:06.002Z,89602.47
2023-05-05T00:49:33.719Z,89602.06
2023-05-05T00:52:00.792Z,89606.59
2023-05-05T00:54:28.186Z,89602.03
2023-05-05T00:56:55.356Z,89607.47
2023-05-05T00:59:22.392Z,89601.41
2023-05-05T01:01:49.599Z,89597.41
2023-05-05T01:04:16.462Z,89594.06
2023-05-05T01:07:03.864Z,89599.59
2023-05-05T01:10:18.033Z,89594.41
2023-05-05T01:13:14.746Z,89600.03
2023-05-05T01:15:50.655Z,89584.00
2023-05-05T01:18:37.745Z,89577.59
2023-05-05T01:21:42.797Z,89569.88
2023-05-05T01:24:42.137Z,89575.47
2023-05-05T01:27:30.792Z,89568.97
2023-05-05T01:30:03.229Z,89574.59
2023-05-05T01:32:34.097Z,89571.78
2023-05-05T01:35:09.732Z,89566.00
2023-05-05T01:38:17.352Z,89562.84
2023-05-05T01:40:49.284Z,89556.56
2023-05-05T01:43:20.359Z,89555.53
2023-05-05T01:45:49.086Z,89551.94
2023-05-05T01:48:19.733Z,89554.13
2023-05-05T01:50:48.514Z,89549.03
2023-05-05T01:53:18.268Z,89544.34
2023-05-05T01:55:47.585Z,89542.97
2023-05-05T01:58:16.352Z,89538.88
2023-05-05T02:00:44.495Z,89533.94
2023-05-05T02:03:13.936Z,89529.34
2023-05-05T02:05:44.112Z,89542.44
2023-05-05T02:08:12.556Z,89534.00
2023-05-05T02:10:40.304Z,89530.38
2023-05-05T02:13:08.200Z,89534.09
2023-05-05T02:15:37.767Z,89527.72
2023-05-05T02:18:06.944Z,89527.81
2023-05-05T02:20:36.279Z,89530.56
2023-05-05T02:23:03.326Z,89523.88
2023-05-05T02:25:46.159Z,89523.56
2023-05-05T02:28:21.545Z,89521.41
2023-05-05T02:30:59.652Z,89508.63
2023-05-05T02:33:29.593Z,89514.00
2023-05-05T02:35:57.668Z,89512.94
2023-05-05T02:38:30.848Z,89505.84
2023-05-05T02:40:59.427Z,89516.03
2023-05-05T02:43:30.055Z,89507.34
2023-05-05T02:45:57.268Z,89501.53
2023-05-05T02:48:24.158Z,89497.91
2023-05-05T02:50:51.101Z,89494.53
2023-05-05T02:53:23.808Z,89494.69
2023-05-05T02:55:57.415Z,89490.84
2023-05-05T02:58:57.209Z,89492.56
2023-05-05T03:02:02.799Z,89494.69
2023-05-05T03:04:38.610Z,89508.94
2023-05-05T03:07:26.279Z,89496.59
2023-05-05T03:10:05.527Z,89497.63
2023-05-05T03:12:40.059Z,89493.69
2023-05-05T03:15:10.634Z,89489.00
2023-05-05T03:17:39.738Z,89488.31
2023-05-05T03:20:08.200Z,89490.75
2023-05-05T03:22:41.303Z,89481.59
2023-05-05T03:25:08.635Z,89483.78
2023-05-05T03:27:36.230Z,89480.44
2023-05-05T03:30:03.356Z,89478.91
2023-05-05T03:32:30.441Z,89472.25
2023-05-05T03:34:57.686Z,89470.84
2023-05-05T03:37:24.702Z,89473.91
2023-05-05T03:39:51.567Z,89472.41
2023-05-05T03:42:18.606Z,89470.88
2023-05-05T03:44:45.689Z,89478.53
2023-05-05T03:47:13.207Z,89482.75
2023-05-05T03:49:40.132Z,89477.97
2023-05-05T03:52:07.187Z,89485.78
2023-05-05T03:54:34.364Z,89481.97
2023-05-05T03:57:01.514Z,89472.13
2023-05-05T03:59:28.523Z,89474.72
2023-05-05T04:01:55.588Z,89479.34
2023-05-05T04:04:22.484Z,89481.84
2023-05-05T04:06:49.696Z,89483.41
2023-05-05T04:09:16.541Z,89484.69
2023-05-05T04:11:43.430Z,89483.97
2023-05-05T04:14:10.508Z,89490.31
2023-05-05T04:16:37.838Z,89482.28
2023-05-05T04:19:04.738Z,89485.91
2023-05-05T04:21:31.786Z,89479.09
2023-05-05T04:23:58.758Z,89482.97
2023-05-05T04:26:25.880Z,89478.06
2023-05-05T04:28:53.022Z,89482.47
2023-05-05T04:31:20.210Z,89475.13
2023-05-05T04:33:47.340Z,89470.03
2023-05-05T04:36:14.500Z,89479.56
2023-05-05T04:38:41.550Z,89481.19
2023-05-05T04:41:08.541Z,89477.03
2023-05-05T04:43:35.595Z,89474.59
2023-05-05T04:46:02.474Z,89484.78
2023-05-05T04:48:29.350Z,89479.16
2023-05-05T04:50:56.683Z,89482.97
2023-05-05T04:53:24.821Z,89483.19
2023-05-05T04:55:52.115Z,89492.44
2023-05-05T04:58:19.832Z,89489.69
2023-05-05T05:00:47.644Z,89484.69
2023-05-05T05:03:14.758Z,89501.53
2023-05-05T05:05:41.873Z,89494.91
2023-05-05T05:08:08.929Z,89496.78
2023-05-05T05:10:36.396Z,89486.16
2023-05-05T05:13:12.902Z,89483.69
2023-05-05T05:15:40.068Z,89489.28
2023-05-05T05:18:14.340Z,89485.78
2023-05-05T05:20:41.168Z,89489.59
2023-05-05T05:23:07.945Z,89489.69
2023-05-05T05:25:34.773Z,89483.81
2023-05-05T05:28:10.346Z,89481.25
2023-05-05T05:30:37.905Z,89487.56
2023-05-05T05:33:15.909Z,89495.06
2023-05-05T05:35:43.260Z,89490.97
2023-05-05T05:38:10.143Z,89489.75
2023-05-05T05:40:37.034Z,89486.97
2023-05-05T05:43:17.352Z,89495.41
2023-05-05T05:45:44.856Z,89488.59
2023-05-05T05:48:11.773Z,89492.16
2023-05-05T05:50:49.780Z,89492.38
2023-05-05T05:53:16.664Z,89475.28
2023-05-05T05:55:46.441Z,89476.81
2023-05-05T05:58:13.287Z,89483.81
2023-05-05T06:00:40.195Z,89484.28
2023-05-05T06:03:07.152Z,89476.38
2023-05-05T06:05:33.986Z,89480.97
2023-05-05T06:08:01.288Z,89478.53
2023-05-05T06:10:28.627Z,89465.00
2023-05-05T06:12:55.580Z,89473.63
2023-05-05T06:15:22.705Z,89478.16
2023-05-05T06:17:49.514Z,89470.41
2023-05-05T06:20:16.463Z,89466.25
2023-05-05T06:22:44.602Z,89464.69
2023-05-05T06:25:11.587Z,89467.31
2023-05-05T06:27:38.609Z,89465.03
2023-05-05T06:30:07.198Z,89462.66
2023-05-05T06:32:34.280Z,89459.75
2023-05-05T06:35:01.319Z,89445.13
2023-05-05T06:37:39.101Z,89445.28
2023-05-05T06:40:06.976Z,89435.31
2023-05-05T06:42:34.032Z,89431.38
2023-05-05T06:45:00.924Z,89430.59
2023-05-05T06:47:27.766Z,89424.00
2023-05-05T06:49:54.746Z,89423.28
2023-05-05T06:52:23.197Z,89416.16
2023-05-05T06:54:50.807Z,89422.41
2023-05-05T06:57:17.706Z,89421.88
2023-05-05T06:59:44.821Z,89426.03
2023-05-05T07:02:11.684Z,89431.16
2023-05-05T07:04:38.705Z,89426.97
2023-05-05T07:07:05.591Z,89430.09
2023-05-05T07:09:32.577Z,89426.41
2023-05-05T07:11:59.459Z,89431.47
2023-05-05T07:14:26.898Z,89426.06
2023-05-05T07:16:54.009Z,89431.28
2023-05-05T07:19:20.854Z,89433.06
2023-05-05T07:21:55.216Z,89431.84
2023-05-05T07:24:24.337Z,89438.97
2023-05-05T07:26:51.349Z,89442.53
2023-05-05T07:29:18.312Z,89440.81
2023-05-05T07:31:45.587Z,89430.28
2023-05-05T07:34:12.545Z,89442.84
2023-05-05T07:36:39.504Z,89443.19
2023-05-05T07:39:06.343Z,89444.47
2023-05-05T07:41:34.282Z,89432.66
2023-05-05T07:44:01.308Z,89421.72
2023-05-05T07:46:28.286Z,89421.13
2023-05-05T07:48:55.252Z,89406.69
2023-05-05T07:51:22.127Z,89411.97
2023-05-05T07:53:49.015Z,89410.78
2023-05-05T07:56:16.168Z,89415.94
2023-05-05T07:58:43.305Z,89420.41
2023-05-05T08:01:10.237Z,89420.69
2023-05-05T08:03:37.721Z,89413.56
2023-05-05T08:06:09.499Z,89424.69
2023-05-05T08:08:37.044Z,89416.09
2023-05-05T08:11:03.985Z,89431.09
2023-05-05T08:13:31.068Z,89418.50
2023-05-05T08:15:58.379Z,89420.72
2023-05-05T08:18:25.425Z,89429.78
2023-05-05T08:20:52.674Z,89426.81
2023-05-05T08:23:19.959Z,89430.75
2023-05-05T08:25:46.887Z,89428.66
2023-05-05T08:28:13.833Z,89421.91
2023-05-05T08:30:40.772Z,89417.81
2023-05-05T08:33:07.672Z,89416.78
2023-05-05T08:35:34.985Z,89412.78
2023-05-05T08:38:01.914Z,89408.81
2023-05-05T08:40:37.275Z,89406.88
2023-05-05T08:43:05.221Z,89400.59
2023-05-05T08:45:33.329Z,89400.66
2023-05-05T08:48:05.526Z,89403.72
2023-05-05T08:53:57.511Z,89400.28
2023-05-05T08:56:27.348Z,89396.97
2023-05-05T08:58:55.091Z,89405.31
2023-05-05T09:01:23.173Z,89397.91
2023-05-05T09:03:52.568Z,89397.34
2023-05-05T09:06:23.952Z,89392.16
2023-05-05T09:08:59.655Z,89393.56
2023-05-05T09:11:26.814Z,89392.09
2023-05-05T09:13:54.875Z,89391.84
2023-05-05T09:16:21.942Z,89395.69
2023-05-05T09:18:50.003Z,89392.50
2023-05-05T09:21:26.667Z,89389.25
2023-05-05T09:24:11.510Z,89394.88
2023-05-05T09:26:44.781Z,89389.41
2023-05-05T09:29:21.470Z,89384.22
2023-05-05T09:32:06.729Z,89388.91
2023-05-05T09:34:35.057Z,89392.88
2023-05-05T09:37:20.054Z,89382.34
2023-05-05T09:39:54.471Z,89381.78
2023-05-05T09:42:21.431Z,89386.50
2023-05-05T09:44:48.274Z,89371.50
2023-05-05T09:47:26.356Z,89374.22
2023-05-05T09:49:59.594Z,89372.06
2023-05-05T09:52:26.643Z,89368.44
2023-05-05T09:54:57.342Z,89365.56
2023-05-05T09:57:33.089Z,89363.44
2023-05-05T10:00:01.804Z,89357.56
2023-05-05T10:02:33.483Z,89361.72
2023-05-05T10:05:09.318Z,89363.22
2023-05-05T10:07:37.516Z,89354.59
2023-05-05T10:10:06.141Z,89362.72
2023-05-05T10:12:50.149Z,89354.00
2023-05-05T10:15:17.363Z,89350.06
2023-05-05T10:18:05.367Z,89355.47
2023-05-05T10:20:33.656Z,89351.13
2023-05-05T10:23:07.381Z,89351.13
2023-05-05T10:25:51.421Z,89343.69
2023-05-05T10:28:29.026Z,89341.56
2023-05-05T10:30:58.635Z,89341.81
2023-05-05T10:33:43.283Z,89339.47
2023-05-05T10:36:10.554Z,89333.53
2023-05-05T10:38:38.437Z,89333.28
2023-05-05T10:41:06.038Z,89331.47
2023-05-05T10:43:35.994Z,89324.63
2023-05-05T10:46:04.418Z,89333.38
2023-05-05T10:48:40.065Z,89324.84
2023-05-05T10:51:27.413Z,89326.78
2023-05-05T10:54:10.737Z,89327.28
2023-05-05T10:56:41.231Z,89312.47
2023-05-05T10:59:37.243Z,89311.41
2023-05-05T11:02:31.038Z,89311.19
2023-05-05T11:05:12.051Z,89308.63
2023-05-05T11:07:40.364Z,89303.75
2023-05-05T11:10:10.186Z,89301.75
2023-05-05T11:12:55.384Z,89304.16
2023-05-05T11:15:29.376Z,89302.47
2023-05-05T11:18:02.643Z,89298.56
2023-05-05T11:20:37.852Z,89299.53
2023-05-05T11:23:05.333Z,89292.78
2023-05-05T11:25:35.324Z,89294.28
2023-05-05T11:28:16.475Z,89283.84
2023-05-05T11:30:58.555Z,89287.06
2023-05-05T11:33:33.883Z,89283.72
2023-05-05T11:36:06.841Z,89281.53
2023-05-05T11:38:56.182Z,89284.88
2023-05-05T11:41:31.670Z,89281.94
2023-05-05T11:44:18.261Z,89276.25
2023-05-05T11:46:50.856Z,89274.72
2023-05-05T11:49:36.764Z,89273.72
2023-05-05T11:52:07.632Z,89270.09
2023-05-05T11:54:48.164Z,89268.34
2023-05-05T11:57:19.825Z,89260.03
2023-05-05T11:59:54.927Z,89260.09
2023-05-05T12:02:23.418Z,89254.13
2023-05-05T12:04:50.967Z,89255.22
2023-05-05T12:07:20.051Z,89244.38
2023-05-05T12:09:48.319Z,89245.66
2023-05-05T12:12:16.189Z,89235.56
2023-05-05T12:14:51.276Z,89234.84
2023-05-05T12:17:22.770Z,89226.91
2023-05-05T12:19:51.876Z,89219.50
2023-05-05T12:22:21.987Z,89220.94
2023-05-05T12:25:00.339Z,89208.84
2023-05-05T12:27:28.404Z,89200.16
2023-05-05T12:29:57.540Z,89200.91
2023-05-05T12:32:26.497Z,89198.69
2023-05-05T12:34:55.142Z,89182.72
2023-05-05T12:37:23.164Z,89180.56
2023-05-05T12:39:57.790Z,89182.59
2023-05-05T12:42:24.821Z,89181.91
2023-05-05T12:44:51.699Z,89171.97
2023-05-05T12:47:32.824Z,89173.66
2023-05-05T12:50:00.393Z,89171.28
2023-05-05T12:52:44.758Z,89177.47
2023-05-05T12:55:13.562Z,89176.38
2023-05-05T12:57:59.407Z,89170.22
2023-05-05T13:00:26.930Z,89170.75
2023-05-05T13:02:54.006Z,89176.84
2023-05-05T13:05:34.947Z,89161.34
2023-05-05T13:08:01.942Z,89165.22
2023-05-05T13:10:28.976Z,89168.25
2023-05-05T13:12:56.494Z,89160.91
2023-05-05T13:15:24.939Z,89161.34
2023-05-05T13:17:59.067Z,89159.91
2023-05-05T13:20:26.208Z,89157.38
2023-05-05T13:22:53.032Z,89160.06
2023-05-05T13:25:19.965Z,89154.63
2023-05-05T13:27:46.848Z,89154.22
2023-05-05T13:30:14.272Z,89144.81
2023-05-05T13:32:42.482Z,89140.31
2023-05-05T13:35:09.639Z,89138.28
2023-05-05T13:37:36.783Z,89122.97
2023-05-05T13:40:04.007Z,89131.19
2023-05-05T13:42:30.802Z,89120.91
2023-05-05T13:44:57.640Z,89120.28
2023-05-05T13:47:24.684Z,89122.75
2023-05-05T13:49:51.686Z,89119.53
2023-05-05T13:52:18.625Z,89115.84
2023-05-05T13:54:45.672Z,89114.00
2023-05-05T13:57:12.694Z,89116.97
2023-05-05T13:59:39.536Z,89114.53
2023-05-05T14:02:07.193Z,89102.78
2023-05-05T14:04:34.284Z,89105.50
2023-05-05T14:07:01.400Z,89107.69
2023-05-05T14:09:32.513Z,89100.09
2023-05-05T14:11:59.372Z,89100.47
2023-05-05T14:14:26.398Z,89100.13
2023-05-05T14:16:53.430Z,89096.69
2023-05-05T14:19:20.691Z,89088.72
2023-05-05T14:21:47.473Z,89090.34
2023-05-05T14:24:15.165Z,89092.19
2023-05-05T14:26:41.998Z,89074.97
2023-05-05T14:29:09.083Z,89077.00
2023-05-05T14:31:36.457Z,89072.84
2023-05-05T14:34:03.432Z,89068.34
2023-05-05T14:36:30.474Z,89063.81
2023-05-05T14:38:57.498Z,89062.53
2023-05-05T14:41:24.443Z,89057.84
2023-05-05T14:43:51.430Z,89070.72
2023-05-05T14:46:18.588Z,89066.25
2023-05-05T14:48:45.832Z,89070.59
2023-05-05T14:51:14.775Z,89063.00
2023-05-05T14:53:41.994Z,89076.56
2023-05-05T14:56:09.066Z,89074.75
2023-05-05T14:58:36.121Z,89072.81
2023-05-05T15:01:03.083Z,89071.38
2023-05-05T15:03:30.022Z,89060.19
2023-05-05T15:05:57.074Z,89059.66
2023-05-05T15:08:24.127Z,89052.09
2023-05-05T15:10:51.069Z,89064.91
2023-05-05T15:13:18.022Z,89060.44
2023-05-05T15:15:44.990Z,89055.75
2023-05-05T15:18:12.153Z,89059.16
2023-05-05T15:20:39.069Z,89065.66
2023-05-05T15:23:06.164Z,89064.56
2023-05-05T15:25:33.164Z,89059.19
2023-05-05T15:28:00.239Z,89061.69
2023-05-05T15:30:28.004Z,89060.25
2023-05-05T15:32:55.110Z,89062.78
2023-05-05T15:35:22.213Z,89061.72
2023-05-05T15:37:55.100Z,89062.78
2023-05-05T15:40:22.324Z,89057.38
2023-05-05T15:42:49.360Z,89059.19
2023-05-05T15:45:16.985Z,89048.94
2023-05-05T15:47:44.050Z,89054.16
2023-05-05T15:50:11.452Z,89057.19
2023-05-05T15:52:38.561Z,89061.34
2023-05-05T15:55:06.282Z,89062.59
2023-05-05T15:57:34.568Z,89060.44
2023-05-05T16:00:01.738Z,89060.81
2023-05-05T16:02:28.959Z,89065.13
2023-05-05T16:04:56.080Z,89068.41
2023-05-05T16:07:23.138Z,89065.47
2023-05-05T16:09:50.200Z,89060.63
2023-05-05T16:12:20.628Z,89079.88
2023-05-05T16:14:47.852Z,89072.44
2023-05-05T16:17:14.910Z,89071.09
2023-05-05T16:19:41.961Z,89078.88
2023-05-05T16:22:09.433Z,89062.31
2023-05-05T16:24:36.607Z,89059.66
2023-05-05T16:27:04.184Z,89061.88
2023-05-05T16:29:31.179Z,89054.31
2023-05-05T16:31:58.335Z,89053.78
2023-05-05T16:34:25.874Z,89055.97
2023-05-05T16:36:55.928Z,89068.56
2023-05-05T16:39:29.900Z,89081.91
2023-05-05T16:41:57.345Z,89081.38
2023-05-05T16:44:34.653Z,89091.25
2023-05-05T16:47:05.448Z,89077.38
2023-05-05T16:49:32.832Z,89095.41
2023-05-05T16:51:59.970Z,89085.88
2023-05-05T16:54:27.369Z,89080.47
2023-05-05T16:56:54.440Z,89085.13
2023-05-05T16:59:21.362Z,89091.78
2023-05-05T17:01:48.514Z,89083.69
2023-05-05T17:04:15.653Z,89081.53
2023-05-05T17:06:42.726Z,89091.63
2023-05-05T17:09:09.856Z,89097.94
2023-05-05T17:11:36.906Z,89106.75
2023-05-05T17:14:03.969Z,89102.63
2023-05-05T17:16:32.098Z,89101.13
2023-05-05T17:18:59.168Z,89089.00
2023-05-05T17:21:26.054Z,89078.88
2023-05-05T17:23:54.720Z,89053.22
2023-05-05T17:26:22.881Z,89041.91
2023-05-05T17:28:50.041Z,89011.38
2023-05-05T17:31:17.131Z,88995.41
2023-05-05T17:33:44.127Z,89001.38
2023-05-05T17:36:11.264Z,89021.03
2023-05-05T17:38:38.506Z,89024.91
2023-05-05T17:41:08.552Z,89020.81
2023-05-05T17:43:37.040Z,89019.94
2023-05-05T17:46:06.644Z,89019.91
2023-05-05T17:48:33.935Z,89006.75
2023-05-05T17:51:01.800Z,88998.50
2023-05-05T17:53:31.574Z,89008.59
2023-05-05T17:56:02.827Z,89006.41
2023-05-05T17:58:29.808Z,88997.75
2023-05-05T18:00:57.050Z,89001.38
2023-05-05T18:03:29.434Z,88992.03
2023-05-05T18:06:02.475Z,89000.50
2023-05-05T18:08:29.938Z,89007.31
2023-05-05T18:10:56.992Z,88999.03
2023-05-05T18:13:24.128Z,89002.97
2023-05-05T18:15:54.515Z,89009.31
2023-05-05T18:18:22.053Z,89020.44
2023-05-05T18:20:49.723Z,89012.56
2023-05-05T18:23:16.855Z,89011.41
2023-05-05T18:25:46.975Z,89019.97
2023-05-05T18:28:14.061Z,89010.06
2023-05-05T18:30:43.915Z,89011.31
2023-05-05T18:33:13.399Z,89008.38
2023-05-05T18:35:40.585Z,89001.00
2023-05-05T18:38:07.590Z,89010.53
2023-05-05T18:40:34.572Z,89005.94
2023-05-05T18:43:01.645Z,89008.00
2023-05-05T18:45:31.448Z,89013.44
2023-05-05T18:47:58.641Z,89013.69
2023-05-05T18:50:25.726Z,89011.72
2023-05-05T18:52:52.905Z,89013.81
2023-05-05T18:55:20.065Z,89014.38
2023-05-05T18:57:47.132Z,89002.47
2023-05-05T19:00:14.442Z,89011.69
2023-05-05T19:02:41.572Z,89009.50
2023-05-05T19:05:09.556Z,89004.59
2023-05-05T19:07:36.906Z,89014.31
2023-05-05T19:10:05.242Z,89012.19
2023-05-05T19:12:32.266Z,89019.41
2023-05-05T19:15:02.271Z,89014.88
2023-05-05T19:17:29.378Z,89007.00
2023-05-05T19:19:56.727Z,89000.81
2023-05-05T19:22:24.860Z,88996.50
2023-05-05T19:24:51.769Z,88988.81
2023-05-05T19:27:18.855Z,89001.00
2023-05-05T19:29:48.320Z,89001.50
2023-05-05T19:32:18.460Z,88986.06
2023-05-05T19:34:50.924Z,88993.22
2023-05-05T19:37:18.031Z,88988.56
2023-05-05T19:39:46.462Z,88973.47
2023-05-05T19:42:17.687Z,88968.19
2023-05-05T19:44:45.146Z,88972.41
2023-05-05T19:47:13.707Z,88961.75
2023-05-05T19:49:52.131Z,88968.28
2023-05-05T19:52:19.203Z,88954.41
2023-05-05T19:54:49.936Z,88967.09
2023-05-05T19:57:22.323Z,88948.88
2023-05-05T19:59:49.357Z,88951.59
2023-05-05T20:02:16.844Z,88959.81
2023-05-05T20:04:44.284Z,88954.72
2023-05-05T20:07:12.718Z,88954.19
2023-05-05T20:09:40.084Z,88953.19
2023-05-05T20:12:10.458Z,88957.44
2023-05-05T20:14:39.612Z,88953.69
2023-05-05T20:17:06.642Z,88940.88
2023-05-05T20:19:36.631Z,88942.84
2023-05-05T20:22:03.653Z,88935.66
2023-05-05T20:24:30.976Z,88939.91
2023-05-05T20:26:58.012Z,88917.97
2023-05-05T20:29:25.063Z,88931.63
2023-05-05T20:31:52.009Z,88905.97
2023-05-05T20:34:19.187Z,88913.31
2023-05-05T20:36:46.108Z,88929.75
2023-05-05T20:39:16.270Z,88931.63
2023-05-05T20:41:43.342Z,88915.06
2023-05-05T20:44:10.320Z,88904.97
2023-05-05T20:46:37.367Z,88923.56
2023-05-05T20:49:04.542Z,88915.00
2023-05-05T20:51:32.883Z,88923.34
2023-05-05T20:54:00.411Z,88942.19
2023-05-05T20:56:30.440Z,88910.44
2023-05-05T20:58:57.473Z,88929.38
2023-05-05T21:01:27.513Z,88929.41
2023-05-05T21:03:59.632Z,88936.25
2023-05-05T21:06:26.827Z,88944.94
2023-05-05T21:08:53.908Z,88938.41
2023-05-05T21:11:21.079Z,88935.22
2023-05-05T21:13:48.058Z,88929.78
2023-05-05T21:16:16.874Z,88927.81
2023-05-05T21:18:44.168Z,88934.34
2023-05-05T21:21:11.265Z,88921.44
2023-05-05T21:23:38.332Z,88917.50
2023-05-05T21:26:05.522Z,88924.91
2023-05-05T21:28:32.510Z,88925.13
2023-05-05T21:31:19.870Z,88920.31
2023-05-05T21:33:46.537Z,88911.25
2023-05-05T21:36:13.801Z,88916.19
2023-05-05T21:38:41.097Z,88931.31
2023-05-05T21:41:08.076Z,88902.19
2023-05-05T21:43:34.990Z,88914.03
2023-05-05T21:46:04.739Z,88912.50
2023-05-05T21:48:31.865Z,88901.53
2023-05-05T21:50:58.908Z,88904.00
2023-05-05T21:53:25.873Z,88900.22
2023-05-05T21:55:52.967Z,88896.72
2023-05-05T21:58:19.872Z,88898.16
2023-05-05T22:00:49.610Z,88890.19
2023-05-05T22:03:17.045Z,88891.44
2023-05-05T22:05:44.079Z,88894.31
2023-05-05T22:08:10.947Z,88905.78
2023-05-05T22:10:40.511Z,88887.09
2023-05-05T22:13:07.590Z,88887.50
2023-05-05T22:15:45.388Z,88872.31
2023-05-05T22:18:14.165Z,88881.72
2023-05-05T22:20:41.289Z,88881.19
2023-05-05T22:23:08.199Z,88877.59
2023-05-05T22:25:35.820Z,88885.63
2023-05-05T22:28:02.902Z,88880.78
2023-05-05T22:30:29.864Z,88876.97
2023-05-05T22:33:00.219Z,88865.19
2023-05-05T22:35:27.407Z,88879.63
2023-05-05T22:37:54.565Z,88870.38
2023-05-05T22:40:21.710Z,88871.19
2023-05-05T22:42:49.237Z,88851.41
2023-05-05T22:45:16.448Z,88864.84
2023-05-05T22:47:43.560Z,88847.72
2023-05-05T22:50:10.960Z,88881.47
2023-05-05T22:52:37.881Z,88864.09
2023-05-05T22:55:05.236Z,88874.53
2023-05-05T22:57:34.496Z,88858.41
2023-05-05T23:00:02.966Z,88855.72
2023-05-05T23:02:30.051Z,88863.16
2023-05-05T23:04:57.061Z,88857.25
2023-05-05T23:07:24.095Z,88854.19
2023-05-05T23:09:51.060Z,88841.09
2023-05-05T23:12:18.128Z,88839.28
2023-05-05T23:14:45.064Z,88831.41
2023-05-05T23:17:12.141Z,88832.66
2023-05-05T23:19:39.216Z,88826.88
2023-05-05T23:22:06.140Z,88827.91
2023-05-05T23:24:33.324Z,88832.25
2023-05-05T23:27:01.204Z,88816.88
2023-05-05T23:29:28.387Z,88825.13
2023-05-05T23:31:55.592Z,88820.91
2023-05-05T23:34:22.607Z,88820.91
2023-05-05T23:36:49.831Z,88825.44
2023-05-05T23:39:16.987Z,88837.31
2023-05-05T23:41:44.111Z,88837.00
2023-05-05T23:44:11.105Z,88846.09
2023-05-05T23:46:38.335Z,88844.94
2023-05-05T23:49:05.402Z,88839.28
2023-05-05T23:51:34.511Z,88835.88
2023-05-05T23:54:01.608Z,88833.28
2023-05-05T23:56:28.599Z,88838.03
2023-05-05T23:58:55.543Z,88841.97
